Groom, Texas
Current Conditions -  °F | °C
As of 2:55 PM on Tuesday 21 Oct 2014 (Local Time) from KPPA Reporting Station
Scattered Clouds Scattered Clouds  
Wind Chill: 77°   Ceiling: Unl
Heat Index: 78°   Visibility: 10mi
Dew Point: 49°   Wind: 10mph
Humidity: 37%   Direction: 190°S
Pressure: 30.07"   Gusts: 18mph
Location:  35.2°N, 101.11°W
Report Text: KPPA 211955Z AUTO 19009G16KT 10SM SCT060 25/09 A3007 RMK AO2 T02520094 PNO
Loading
Personal Weather Stations






























Interactive Weather Map
Tropical Storm Tracking
New forecast layout! Learn more

10-Day Weather Forecast

Advertisements
Track Severe Weather on mobile